KILM/ILM METAR and TAF weather

Enter ICAO airport designator
Station Type Date Time Source
KILM METAR 2020/07/11 00:53 UTC NOAA

KILM 110053Z 19005KT 10SM CLR 27/24 A2986 RMK AO2 SLP111 T02720244


Station Type Date Time Source
KILM Decoded METAR 2020/07/11 00:53 UTC NOAA

WILMINGTON INT'L AIRPORT, NC, United States (KILM) 34-16N 077-54W 9M
Jul 10, 2020 - 08:53 PM EDT / 2020.07.11 0053 UTC
Wind: from the S (190 degrees) at 6 MPH (5 KT):0
Visibility: 10 mile(s):0
Sky conditions: clear
Temperature: 81.0 F (27.2 C)
Dew Point: 75.9 F (24.4 C)
Relative Humidity: 84%
Pressure (altimeter): 29.86 in. Hg (1011 hPa)
ob: KILM 110053Z 19005KT 10SM CLR 27/24 A2986 RMK AO2 SLP111 T02720244
cycle: 1

Station Type Date Time Source
KILM TAF 2020/07/10 22:06 UTC NOAA

TAF
AMD KILM 102203Z 1022/1118 18009KT P6SM FEW030
FM110200 21004KT P6SM SCT100
FM111700 19008KT P6SM SCT050

Example: see airport list